Time;durP1;ratioP1;P1;durP2;ratioP2;P2;SDS_P1;SDS_P2;PMS_P1;PMS_P2;Temp;Humidity;BMP_temperature;BMP_pressure;BME280_temperature;BME280_humidity;BME280_pressure;Samples;Min_cycle;Max_cycle;Signal;HPM_P1;HPM_P2
2022/03/29 00:01:57;;;;;;;29.90;10.77;;;;;;;38.10;48.33;100877.28;4770530;30;20464;-72
2022/03/29 00:04:24;;;;;;;31.63;11.90;;;;;;;38.25;47.78;100876.13;4771987;30;20443;-72
2022/03/29 00:06:51;;;;;;;24.90;11.57;;;;;;;38.37;47.32;100860.13;4770667;30;20443;-73
2022/03/29 00:09:17;;;;;;;29.97;12.33;;;;;;;38.21;47.21;100867.00;4770470;30;22415;-71
2022/03/29 00:11:43;;;;;;;44.83;13.73;;;;;;;38.29;46.89;100865.47;4770536;30;20474;-71
2022/03/29 00:14:12;;;;;;;23.67;10.93;;;;;;;38.03;47.95;100866.06;4770614;30;20443;-72
2022/03/29 00:16:38;;;;;;;24.43;8.93;;;;;;;38.18;47.55;100846.75;4771773;30;20439;-71
2022/03/29 00:19:05;;;;;;;39.93;12.60;;;;;;;38.23;47.63;100851.22;4770453;30;20446;-71
2022/03/29 00:21:32;;;;;;;20.53;10.50;;;;;;;38.36;47.20;100855.81;4770304;30;20458;-70
2022/03/29 00:23:58;;;;;;;29.33;13.83;;;;;;;38.11;47.44;100853.69;4770277;30;20436;-70
2022/03/29 00:26:24;;;;;;;34.07;12.00;;;;;;;37.94;47.85;100856.25;4771565;30;20547;-72
2022/03/29 00:28:50;;;;;;;28.70;11.73;;;;;;;38.05;48.00;100844.88;4770558;30;20428;-72
2022/03/29 00:31:19;;;;;;;24.83;11.47;;;;;;;38.26;47.47;100847.13;4770455;30;20573;-72
2022/03/29 00:33:49;;;;;;;21.10;10.27;;;;;;;38.15;47.80;100841.94;4770313;30;20440;-71
2022/03/29 00:36:16;;;;;;;22.27;9.53;;;;;;;37.99;48.26;100846.09;4770296;30;20519;-70
2022/03/29 00:38:43;;;;;;;33.90;11.70;;;;;;;37.97;47.88;100840.22;4770161;30;20951;-71
2022/03/29 00:41:09;;;;;;;33.60;11.03;;;;;;;38.03;47.77;100844.41;4770151;30;20405;-71
2022/03/29 00:43:36;;;;;;;29.50;9.00;;;;;;;38.13;47.12;100835.25;4770137;30;20802;-72
2022/03/29 00:46:03;;;;;;;35.27;13.90;;;;;;;38.13;47.53;100837.94;4770081;30;21024;-73
2022/03/29 00:48:29;;;;;;;24.00;12.30;;;;;;;38.50;46.90;100828.66;4769993;30;20446;-72
2022/03/29 00:50:56;;;;;;;29.70;12.10;;;;;;;38.39;46.97;100819.97;4769748;30;21003;-70
2022/03/29 00:53:23;;;;;;;24.13;10.57;;;;;;;38.52;46.90;100825.63;4769742;30;20474;-71
2022/03/29 00:55:51;;;;;;;33.57;11.53;;;;;;;38.46;46.59;100822.25;4769677;30;20491;-71
2022/03/29 00:58:17;;;;;;;28.63;12.57;;;;;;;38.14;47.61;100810.53;4769921;30;20447;-72
2022/03/29 01:00:44;;;;;;;20.37;9.47;;;;;;;37.82;47.82;100810.78;4769661;30;20937;-71
2022/03/29 01:03:11;;;;;;;28.80;10.53;;;;;;;37.90;48.33;100807.34;4769756;30;20467;-70
2022/03/29 01:05:38;;;;;;;39.20;10.17;;;;;;;37.88;47.80;100810.38;4769679;30;20542;-70
2022/03/29 01:08:05;;;;;;;24.47;10.50;;;;;;;38.08;47.52;100800.16;4769645;30;20992;-70
2022/03/29 01:10:31;;;;;;;25.23;9.63;;;;;;;37.76;48.17;100814.69;4772017;30;20475;-72
2022/03/29 01:12:58;;;;;;;39.47;14.67;;;;;;;37.97;47.92;100809.63;4768096;30;20976;-72
2022/03/29 01:15:26;;;;;;;31.50;11.10;;;;;;;37.98;48.46;100813.94;4752113;30;20922;-70
2022/03/29 01:17:54;;;;;;;28.30;11.60;;;;;;;38.28;47.49;100805.09;4751738;30;20437;-72
2022/03/29 01:20:27;;;;;;;30.60;10.67;;;;;;;38.18;47.22;100810.72;4751742;30;20834;-71
2022/03/29 01:22:55;;;;;;;27.33;9.43;;;;;;;38.00;47.85;100806.28;4751636;30;20433;-70
2022/03/29 01:25:42;;;;;;;25.50;11.33;;;;;;;37.81;47.85;100809.19;4751698;30;20523;-71
2022/03/29 01:28:10;;;;;;;41.80;12.60;;;;;;;37.84;48.29;100800.44;4751479;30;20816;-71
2022/03/29 01:30:36;;;;;;;25.17;10.63;;;;;;;37.81;47.79;100803.75;4751487;30;20464;-73
2022/03/29 01:33:06;;;;;;;31.70;10.17;;;;;;;37.91;47.73;100801.63;4751444;30;20943;-70
2022/03/29 01:35:33;;;;;;;23.63;10.83;;;;;;;37.88;47.91;100793.31;4751525;30;20502;-70
2022/03/29 01:37:59;;;;;;;19.87;9.80;;;;;;;37.94;47.77;100783.16;4751433;30;20433;-71
2022/03/29 01:40:27;;;;;;;31.10;11.90;;;;;;;37.92;48.02;100778.03;4751627;30;20449;-71
2022/03/29 01:42:58;;;;;;;18.70;10.53;;;;;;;38.10;47.86;100784.38;4751178;30;20436;-71
2022/03/29 01:45:27;;;;;;;29.73;12.30;;;;;;;38.18;47.14;100780.91;4751186;30;20437;-71
2022/03/29 01:47:53;;;;;;;24.03;11.27;;;;;;;38.41;46.93;100779.00;4751506;30;20448;-71
2022/03/29 01:50:20;;;;;;;29.10;13.73;;;;;;;38.18;47.81;100784.44;4751071;30;20909;-71
2022/03/29 01:52:48;;;;;;;38.37;11.53;;;;;;;38.09;47.29;100789.00;4751227;30;20429;-70
2022/03/29 01:55:19;;;;;;;26.97;11.13;;;;;;;38.00;47.15;100788.16;4750836;30;20501;-72
2022/03/29 01:57:46;;;;;;;22.90;10.13;;;;;;;38.07;47.75;100787.72;4751135;30;20531;-72
2022/03/29 02:00:38;;;;;;;28.37;11.90;;;;;;;38.12;47.46;100782.97;4751136;30;20437;-72
2022/03/29 02:03:06;;;;;;;41.93;11.10;;;;;;;38.27;47.36;100775.59;4752534;30;20409;-72
2022/03/29 02:05:33;;;;;;;19.10;8.97;;;;;;;38.10;47.16;100771.63;4752146;30;20445;-73
2022/03/29 02:08:00;;;;;;;20.17;9.83;;;;;;;38.23;46.98;100766.44;4750918;30;20437;-72
2022/03/29 02:10:26;;;;;;;21.50;10.70;;;;;;;38.23;46.98;100769.16;4750769;30;20864;-71
2022/03/29 02:12:53;;;;;;;45.37;13.87;;;;;;;38.27;47.15;100762.06;4750780;30;20445;-71
2022/03/29 02:15:19;;;;;;;31.97;10.93;;;;;;;38.20;47.59;100767.09;4752026;30;20438;-71
2022/03/29 02:17:48;;;;;;;27.83;11.70;;;;;;;37.95;47.61;100763.09;4751969;30;20417;-70
2022/03/29 02:20:14;;;;;;;29.10;10.53;;;;;;;38.14;46.49;100763.69;4751091;30;20449;-71
2022/03/29 02:22:41;;;;;;;26.17;10.50;;;;;;;38.34;46.91;100762.41;4750705;30;20441;-73
2022/03/29 02:25:10;;;;;;;27.20;11.80;;;;;;;38.18;47.16;100762.78;4750698;30;20422;-70
2022/03/29 02:27:38;;;;;;;22.33;11.90;;;;;;;38.30;46.78;100756.00;4750650;30;20499;-71
2022/03/29 02:30:06;;;;;;;29.83;9.60;;;;;;;38.00;47.05;100746.72;4750566;30;20471;-73
2022/03/29 02:32:32;;;;;;;32.97;11.93;;;;;;;38.03;47.74;100746.09;4750626;30;20930;-73
2022/03/29 02:34:58;;;;;;;25.97;9.23;;;;;;;38.15;47.58;100744.41;4750558;30;20941;-70
2022/03/29 02:37:24;;;;;;;23.60;11.60;;;;;;;38.22;47.26;100737.75;4751697;30;20423;-71
2022/03/29 02:39:50;;;;;;;33.00;10.77;;;;;;;38.11;47.63;100740.72;4750542;30;20440;-71
2022/03/29 02:42:17;;;;;;;25.33;10.30;;;;;;;38.05;47.58;100735.75;4751673;30;20491;-73
2022/03/29 02:44:43;;;;;;;28.87;10.83;;;;;;;38.01;47.63;100732.88;4750390;30;20425;-70
2022/03/29 02:47:09;;;;;;;30.03;12.67;;;;;;;37.96;47.33;100743.84;4751604;30;20479;-71
2022/03/29 02:49:36;;;;;;;35.23;10.97;;;;;;;38.01;47.36;100743.72;4750194;30;20838;-70
2022/03/29 02:52:04;;;;;;;21.00;11.30;;;;;;;38.13;47.59;100746.66;4751469;30;20457;-71
2022/03/29 02:54:30;;;;;;;37.90;12.10;;;;;;;38.24;47.37;100743.66;4749518;30;20927;-73
2022/03/29 02:56:56;;;;;;;22.67;10.90;;;;;;;38.08;47.52;100737.84;4750314;30;20520;-71
2022/03/29 02:59:22;;;;;;;24.37;10.93;;;;;;;38.02;47.60;100742.59;4750167;30;20448;-71
2022/03/29 03:01:48;;;;;;;23.57;10.07;;;;;;;38.12;47.40;100736.09;4750009;30;20845;-71
2022/03/29 03:04:14;;;;;;;29.87;13.30;;;;;;;38.11;47.51;100748.06;4750169;30;20452;-71
2022/03/29 03:06:43;;;;;;;17.33;9.70;;;;;;;38.19;47.54;100744.63;4750000;30;20475;-71
2022/03/29 03:09:09;;;;;;;40.67;14.53;;;;;;;38.31;46.82;100742.16;4758529;30;20436;-71
2022/03/29 03:11:36;;;;;;;28.87;10.50;;;;;;;38.31;46.82;100742.16;4767880;30;20451;-70
2022/03/29 03:14:03;;;;;;;27.13;12.97;;;;;;;38.35;47.05;100742.31;4767273;30;20555;-71
2022/03/29 03:16:29;;;;;;;28.60;12.83;;;;;;;38.22;47.53;100738.56;4767835;30;20516;-73
2022/03/29 03:18:55;;;;;;;25.13;10.57;;;;;;;38.35;47.10;100745.03;4767594;30;20464;-72
2022/03/29 03:21:21;;;;;;;19.30;11.00;;;;;;;38.44;46.71;100733.13;4760059;30;20471;-71
2022/03/29 03:23:48;;;;;;;24.63;10.80;;;;;;;38.29;46.92;100738.16;4749826;30;20456;-72
2022/03/29 03:26:14;;;;;;;18.20;11.40;;;;;;;38.42;46.59;100738.03;4749982;30;20611;-72
2022/03/29 03:28:40;;;;;;;27.17;10.37;;;;;;;38.67;45.95;100743.88;4749891;30;20464;-72
2022/03/29 03:31:06;;;;;;;22.07;12.17;;;;;;;38.51;46.44;100735.38;4749861;30;20468;-71
2022/03/29 03:33:32;;;;;;;27.27;11.67;;;;;;;38.62;46.15;100747.53;4749847;30;20456;-71
2022/03/29 03:35:58;;;;;;;27.23;11.37;;;;;;;38.73;45.81;100745.34;4749900;30;20811;-71
2022/03/29 03:38:24;;;;;;;20.43;11.10;;;;;;;38.64;45.89;100750.72;4749633;30;20444;-72
2022/03/29 03:40:51;;;;;;;33.53;11.77;;;;;;;38.62;46.55;100752.97;4749898;30;20429;-72
2022/03/29 03:43:17;;;;;;;22.90;10.67;;;;;;;38.40;46.96;100753.81;4749807;30;20437;-71
2022/03/29 03:45:43;;;;;;;23.20;8.93;;;;;;;38.52;46.40;100752.44;4749882;30;20429;-70
2022/03/29 03:48:09;;;;;;;42.63;13.40;;;;;;;38.75;46.22;100753.19;4750118;30;20487;-71
2022/03/29 03:50:35;;;;;;;22.03;10.57;;;;;;;38.61;46.40;100751.38;4749692;30;20476;-73
2022/03/29 03:53:01;;;;;;;23.13;10.20;;;;;;;38.50;46.61;100757.38;4749768;30;20878;-72
2022/03/29 03:55:27;;;;;;;19.80;12.33;;;;;;;38.60;46.29;100766.00;4749425;30;20516;-71
2022/03/29 03:57:53;;;;;;;25.33;11.53;;;;;;;38.55;46.57;100759.94;4749692;30;20437;-70
2022/03/29 04:00:21;;;;;;;25.90;12.90;;;;;;;38.52;46.37;100763.28;4751030;30;20496;-72
2022/03/29 04:02:50;;;;;;;35.77;10.00;;;;;;;38.59;46.04;100755.50;4749569;30;20523;-73
2022/03/29 04:05:17;;;;;;;34.57;15.13;;;;;;;38.54;46.62;100759.13;4750607;30;20490;-73
2022/03/29 04:07:43;;;;;;;27.23;10.87;;;;;;;38.50;46.38;100757.38;4752877;30;20957;-71
2022/03/29 04:10:10;;;;;;;34.03;10.60;;;;;;;38.40;46.47;100764.66;4752911;30;20477;-71
2022/03/29 04:12:36;;;;;;;26.47;9.73;;;;;;;38.46;46.59;100776.16;4752881;30;20802;-70
2022/03/29 04:15:04;;;;;;;22.40;10.70;;;;;;;38.50;46.61;100771.72;4752802;30;20436;-71
2022/03/29 04:17:31;;;;;;;30.97;11.13;;;;;;;38.72;46.21;100762.75;4752761;30;20436;-71
2022/03/29 04:19:58;;;;;;;25.53;10.83;;;;;;;38.60;46.31;100765.22;4752720;30;20433;-71
2022/03/29 04:22:24;;;;;;;27.73;10.60;;;;;;;38.59;46.17;100758.19;4752557;30;20850;-71
2022/03/29 04:24:50;;;;;;;27.63;10.67;;;;;;;38.57;46.10;100769.38;4752726;30;20441;-71
2022/03/29 04:27:16;;;;;;;19.53;11.10;;;;;;;38.41;46.70;100760.03;4752593;30;20991;-72
2022/03/29 04:29:43;;;;;;;40.53;15.43;;;;;;;38.39;46.48;100754.94;4752548;30;20471;-72
2022/03/29 04:32:09;;;;;;;19.70;9.57;;;;;;;38.51;46.74;100758.97;4752534;30;20965;-73
2022/03/29 04:34:35;;;;;;;24.00;10.07;;;;;;;38.66;46.05;100755.84;4752574;30;20536;-72
2022/03/29 04:37:01;;;;;;;29.60;11.90;;;;;;;38.65;46.07;100760.47;4753735;30;20413;-73
2022/03/29 04:39:27;;;;;;;31.63;11.53;;;;;;;38.80;45.51;100767.41;4753506;30;20543;-73
2022/03/29 04:41:53;;;;;;;23.70;11.03;;;;;;;38.83;45.27;100768.69;4752472;30;20502;-72
2022/03/29 04:44:19;;;;;;;20.83;9.93;;;;;;;38.85;45.68;100777.28;4752334;30;20441;-73
2022/03/29 04:46:45;;;;;;;29.57;15.40;;;;;;;38.74;45.97;100776.81;4752111;30;20824;-73
2022/03/29 04:49:12;;;;;;;25.27;10.20;;;;;;;38.62;46.14;100779.28;4752258;30;20506;-72
2022/03/29 04:51:38;;;;;;;24.23;10.23;;;;;;;38.64;45.56;100787.88;4753432;30;20418;-72
2022/03/29 04:54:04;;;;;;;27.00;13.13;;;;;;;38.58;45.67;100789.94;4751993;30;20491;-73
2022/03/29 04:56:30;;;;;;;20.63;11.80;;;;;;;38.63;45.42;100792.50;4752073;30;20435;-73
2022/03/29 04:58:56;;;;;;;23.13;10.33;;;;;;;38.58;45.64;100792.66;4752082;30;20468;-72
2022/03/29 05:01:23;;;;;;;28.10;11.90;;;;;;;38.57;45.51;100796.47;4753272;30;20473;-73
2022/03/29 05:03:49;;;;;;;21.63;10.67;;;;;;;38.75;45.51;100810.13;4737397;30;20465;-73
2022/03/29 05:06:15;;;;;;;26.07;11.77;;;;;;;38.73;45.34;100809.63;4753282;30;20472;-72
2022/03/29 05:08:41;;;;;;;31.43;9.87;;;;;;;38.62;45.77;100812.59;4753273;30;20421;-74
2022/03/29 05:11:07;;;;;;;32.87;11.47;;;;;;;38.74;45.40;100819.38;4751682;30;20472;-72
2022/03/29 05:13:33;;;;;;;25.57;13.90;;;;;;;38.76;45.36;100819.88;4756976;30;20819;-73
2022/03/29 05:15:59;;;;;;;17.17;10.03;;;;;;;38.70;45.68;100825.38;4769877;30;20812;-73
2022/03/29 05:18:25;;;;;;;28.67;11.50;;;;;;;38.74;45.07;100822.91;4768972;30;20528;-73
2022/03/29 05:20:52;;;;;;;40.57;12.50;;;;;;;38.80;44.84;100821.66;4769610;30;20432;-72
2022/03/29 05:23:18;;;;;;;19.33;11.13;;;;;;;38.78;44.90;100814.91;4769488;30;20471;-73
2022/03/29 05:25:44;;;;;;;18.47;10.80;;;;;;;38.61;45.32;100813.72;4762615;30;21198;-73
2022/03/29 05:28:10;;;;;;;22.47;10.80;;;;;;;38.65;45.25;100811.16;4751509;30;20429;-71
2022/03/29 05:30:37;;;;;;;28.20;10.90;;;;;;;38.66;45.29;100812.75;4751670;30;20563;-71
2022/03/29 05:33:03;;;;;;;28.83;11.67;;;;;;;38.66;45.60;100813.56;4751670;30;20441;-71
2022/03/29 05:35:30;;;;;;;25.63;9.97;;;;;;;38.70;45.75;100819.16;4751487;30;20434;-73
2022/03/29 05:37:58;;;;;;;31.33;13.20;;;;;;;38.55;45.60;100816.84;4752784;30;20430;-71
2022/03/29 05:40:25;;;;;;;32.40;12.77;;;;;;;38.51;46.00;100807.75;4751423;30;20805;-72
2022/03/29 05:42:52;;;;;;;20.87;10.13;;;;;;;38.49;45.99;100809.97;4751520;30;20495;-73
2022/03/29 05:45:19;;;;;;;21.23;9.50;;;;;;;38.59;45.85;100817.84;4750813;30;20557;-73
2022/03/29 05:50:29;;;;;;;34.33;12.83;;;;;;;38.60;45.92;100830.28;4750710;30;20479;-73
2022/03/29 05:52:56;;;;;;;24.73;12.57;;;;;;;38.53;46.07;100825.31;4749575;30;21006;-73
2022/03/29 05:55:23;;;;;;;21.77;9.33;;;;;;;38.36;46.31;100819.78;4750454;30;20575;-73
2022/03/29 05:57:50;;;;;;;15.40;9.97;;;;;;;38.61;45.64;100819.16;4749650;30;20456;-75
2022/03/29 06:00:17;;;;;;;29.83;10.40;;;;;;;38.48;45.84;100817.28;4749424;30;20449;-75
2022/03/29 06:02:43;;;;;;;27.67;10.83;;;;;;;38.52;46.07;100826.41;4756601;30;20462;-72
2022/03/29 06:05:10;;;;;;;28.10;10.37;;;;;;;38.37;46.06;100830.34;4759149;30;20465;-73
2022/03/29 06:07:36;;;;;;;20.63;11.47;;;;;;;38.57;45.85;100825.50;4758292;30;20432;-72
2022/03/29 06:10:04;;;;;;;44.67;11.77;;;;;;;38.47;46.13;100829.25;4762081;30;20495;-75
2022/03/29 06:12:30;;;;;;;30.77;11.57;;;;;;;38.58;45.93;100841.44;4765532;30;20456;-73
2022/03/29 06:14:56;;;;;;;29.43;10.77;;;;;;;38.45;45.97;100834.19;4767832;30;20871;-76
2022/03/29 06:17:22;;;;;;;36.80;10.70;;;;;;;38.35;46.52;100843.38;4768503;30;20436;-72
2022/03/29 06:19:48;;;;;;;41.83;11.90;;;;;;;38.32;46.56;100859.47;4768531;30;20456;-72
2022/03/29 06:22:14;;;;;;;19.50;10.30;;;;;;;38.36;46.58;100855.81;4768267;30;20467;-72
2022/03/29 06:24:41;;;;;;;25.90;9.97;;;;;;;38.44;46.11;100855.06;4768048;30;20448;-72
2022/03/29 06:27:07;;;;;;;27.80;11.20;;;;;;;38.59;45.84;100862.00;4768306;30;20432;-71
2022/03/29 06:29:36;;;;;;;37.47;12.13;;;;;;;38.50;45.96;100868.50;4767531;30;20443;-71
2022/03/29 06:32:03;;;;;;;44.67;12.07;;;;;;;38.72;45.45;100876.63;4759775;30;20472;-71
2022/03/29 06:34:29;;;;;;;30.27;12.43;;;;;;;38.78;45.59;100872.66;4750597;30;20421;-72
2022/03/29 06:36:56;;;;;;;32.27;15.00;;;;;;;38.78;45.79;100871.84;4750225;30;20534;-73
2022/03/29 06:39:22;;;;;;;24.30;10.50;;;;;;;38.64;45.78;100880.84;4750482;30;20433;-73
2022/03/29 06:41:50;;;;;;;30.20;12.63;;;;;;;38.69;44.95;100883.44;4755199;30;20545;-73
2022/03/29 06:44:17;;;;;;;21.03;9.90;;;;;;;38.57;45.54;100888.63;4759364;30;20468;-72
2022/03/29 06:46:43;;;;;;;30.37;10.47;;;;;;;38.71;45.12;100893.97;4757968;30;20431;-73
2022/03/29 06:49:09;;;;;;;27.03;9.80;;;;;;;38.72;45.39;100898.31;4759669;30;20444;-72
2022/03/29 06:51:36;;;;;;;23.20;12.40;;;;;;;38.83;45.12;100898.84;4758160;30;20589;-71
2022/03/29 06:54:04;;;;;;;34.50;11.67;;;;;;;38.95;45.04;100907.19;4761069;30;20453;-72
2022/03/29 06:56:31;;;;;;;22.13;9.07;;;;;;;38.77;45.24;100902.81;4759723;30;20521;-73
2022/03/29 06:58:57;;;;;;;22.37;10.40;;;;;;;38.58;45.65;100905.69;4758626;30;20494;-71
2022/03/29 07:01:24;;;;;;;31.10;11.70;;;;;;;38.66;44.99;100913.88;4757760;30;20534;-72
2022/03/29 07:03:51;;;;;;;37.87;11.37;;;;;;;38.65;45.35;100909.56;4759713;30;20505;-71
2022/03/29 07:06:17;;;;;;;34.23;10.70;;;;;;;38.72;45.35;100914.56;4758651;30;20475;-71
2022/03/29 07:11:27;;;;;;;32.57;13.80;;;;;;;38.60;45.58;100909.69;4759533;30;20509;-71
2022/03/29 07:13:53;;;;;;;25.60;10.80;;;;;;;38.73;45.61;100909.94;4758155;30;20436;-70
2022/03/29 07:16:20;;;;;;;23.93;10.23;;;;;;;38.73;45.39;100902.59;4750194;30;20453;-70
2022/03/29 07:18:47;;;;;;;24.57;10.57;;;;;;;38.77;45.14;100905.50;4765977;30;20568;-70
2022/03/29 07:21:13;;;;;;;27.90;11.63;;;;;;;38.78;45.32;100916.03;4767754;30;20428;-70
2022/03/29 07:23:40;;;;;;;37.33;14.50;;;;;;;38.83;45.43;100907.78;4759528;30;20468;-70
2022/03/29 07:26:07;;;;;;;32.93;10.60;;;;;;;38.76;45.21;100912.06;4753785;30;20448;-71
2022/03/29 07:28:33;;;;;;;28.20;12.57;;;;;;;38.99;44.82;100910.91;4757446;30;20821;-72
2022/03/29 07:30:59;;;;;;;26.33;13.70;;;;;;;38.69;45.39;100910.56;4758198;30;20477;-72
2022/03/29 07:33:25;;;;;;;26.40;9.47;;;;;;;38.99;44.50;100908.19;4756347;30;20437;-70
2022/03/29 07:35:51;;;;;;;38.33;10.40;;;;;;;38.77;45.09;100906.31;4756599;30;20803;-70
2022/03/29 07:38:17;;;;;;;23.17;10.37;;;;;;;38.79;45.09;100916.84;4759693;30;20493;-73
2022/03/29 07:40:44;;;;;;;27.77;12.20;;;;;;;38.63;45.25;100919.94;4762293;30;20432;-72
2022/03/29 07:43:12;;;;;;;30.17;10.87;;;;;;;38.63;45.43;100919.13;4754694;30;20436;-72
2022/03/29 07:45:39;;;;;;;36.57;12.27;;;;;;;38.76;45.10;100925.59;4754535;30;20906;-72
2022/03/29 07:48:06;;;;;;;26.27;14.80;;;;;;;39.00;44.76;100922.53;4753139;30;20977;-70
2022/03/29 07:50:33;;;;;;;33.97;13.40;;;;;;;38.93;45.42;100931.13;4738572;30;20575;-71
2022/03/29 07:53:03;;;;;;;24.60;11.30;;;;;;;38.89;44.80;100930.16;4753281;30;20433;-71
2022/03/29 07:55:29;;;;;;;25.80;10.57;;;;;;;39.06;44.89;100935.66;4753010;30;20643;-73
2022/03/29 07:57:56;;;;;;;32.57;10.00;;;;;;;39.19;44.36;100940.22;4753123;30;20514;-70
2022/03/29 08:00:31;;;;;;;21.03;10.80;;;;;;;38.98;44.76;100936.44;4756714;30;20436;-72
2022/03/29 08:03:12;;;;;;;28.90;12.37;;;;;;;39.02;44.69;100939.31;4761900;30;20409;-72
2022/03/29 08:05:41;;;;;;;21.97;12.10;;;;;;;38.93;44.92;100948.19;4760083;30;20523;-71
2022/03/29 08:08:07;;;;;;;34.53;13.57;;;;;;;39.18;44.71;100948.66;4765158;30;20513;-72
2022/03/29 08:10:34;;;;;;;29.13;11.30;;;;;;;39.17;44.82;100949.78;4765463;30;20496;-73
2022/03/29 08:13:02;;;;;;;20.10;12.47;;;;;;;39.16;44.32;100951.66;4771946;30;20409;-73
2022/03/29 08:15:29;;;;;;;22.10;10.03;;;;;;;39.13;44.74;100951.47;4770639;30;20492;-73
2022/03/29 08:17:56;;;;;;;32.27;13.37;;;;;;;39.25;44.44;100959.06;4770320;30;20432;-73
2022/03/29 08:20:23;;;;;;;29.83;10.97;;;;;;;39.35;44.00;100954.16;4750230;30;20433;-73
2022/03/29 08:22:49;;;;;;;27.70;11.03;;;;;;;39.38;44.51;100950.00;4758825;30;20442;-74
2022/03/29 08:25:18;;;;;;;26.43;12.03;;;;;;;39.20;44.60;100960.78;4760943;30;20459;-72
2022/03/29 08:27:46;;;;;;;26.93;10.17;;;;;;;38.97;44.35;100957.28;4762255;30;20417;-75
2022/03/29 08:30:13;;;;;;;26.53;11.00;;;;;;;39.00;44.23;100958.59;4759078;30;20472;-80
2022/03/29 08:32:40;;;;;;;26.90;10.10;;;;;;;38.90;44.72;100956.16;4761431;30;20458;-76
2022/03/29 08:35:08;;;;;;;23.10;12.27;;;;;;;38.95;44.70;100956.81;4760737;30;20938;-73
2022/03/29 08:37:36;;;;;;;20.90;10.10;;;;;;;39.02;44.71;100966.41;4759248;30;20433;-75
2022/03/29 08:40:11;;;;;;;25.70;11.43;;;;;;;39.19;44.13;100961.91;4759889;30;20432;-75
2022/03/29 08:42:37;;;;;;;25.03;11.50;;;;;;;38.90;44.88;100969.72;4763399;30;20435;-74
2022/03/29 08:45:08;;;;;;;29.90;10.60;;;;;;;39.06;44.43;100972.84;4756630;30;20452;-72
2022/03/29 08:47:35;;;;;;;23.13;10.83;;;;;;;39.06;44.77;100978.25;4753527;30;20409;-72
2022/03/29 08:50:04;;;;;;;18.27;10.53;;;;;;;39.18;44.32;100978.50;4753466;30;20568;-71
2022/03/29 08:52:31;;;;;;;33.53;10.10;;;;;;;39.27;44.36;100973.13;4751488;30;20496;-69
2022/03/29 08:54:57;;;;;;;20.40;9.57;;;;;;;39.29;44.20;100970.88;4752111;30;20588;-72
2022/03/29 08:57:23;;;;;;;23.67;9.83;;;;;;;39.42;44.15;100973.50;4752253;30;20449;-69
2022/03/29 08:59:49;;;;;;;22.40;9.17;;;;;;;39.10;44.69;100973.78;4752073;30;20440;-71
2022/03/29 09:02:17;;;;;;;29.83;10.70;;;;;;;39.40;44.39;100969.50;4752142;30;20460;-71
2022/03/29 09:04:44;;;;;;;22.20;10.30;;;;;;;39.43;44.26;100977.81;4767370;30;20444;-69
2022/03/29 09:07:11;;;;;;;27.80;9.30;;;;;;;39.54;43.89;100989.19;4767968;30;20432;-71
2022/03/29 09:09:41;;;;;;;25.93;10.00;;;;;;;39.60;43.64;100987.97;4767854;30;20519;-71
2022/03/29 09:12:19;;;;;;;22.53;8.80;;;;;;;39.68;43.53;100987.19;4767878;30;20428;-71
2022/03/29 09:15:00;;;;;;;21.13;9.67;;;;;;;39.75;43.10;100989.44;4767861;30;20434;-70
2022/03/29 09:17:47;;;;;;;22.87;7.83;;;;;;;39.83;43.10;100990.56;4767710;30;20492;-71
2022/03/29 09:20:21;;;;;;;18.70;7.93;;;;;;;39.87;43.06;100986.91;4769413;30;20443;-71
2022/03/29 09:22:53;;;;;;;22.33;9.40;;;;;;;40.00;42.96;100980.53;4770741;30;20468;-71
2022/03/29 09:25:23;;;;;;;19.10;9.60;;;;;;;40.01;42.49;100981.34;4769485;30;20565;-69
2022/03/29 09:28:15;;;;;;;16.70;7.73;;;;;;;40.03;42.36;100977.19;4769461;30;20941;-70
2022/03/29 09:30:52;;;;;;;26.83;11.17;;;;;;;40.14;42.20;100974.19;4769643;30;20472;-68
2022/03/29 09:33:20;;;;;;;20.30;9.83;;;;;;;40.18;41.97;100973.22;4769266;30;20431;-71
2022/03/29 09:36:10;;;;;;;20.57;7.87;;;;;;;40.13;42.39;100973.38;4770566;30;20426;-71
2022/03/29 09:38:37;;;;;;;18.33;8.23;;;;;;;40.05;42.49;100966.03;4770397;30;20974;-71
2022/03/29 09:41:18;;;;;;;27.63;9.60;;;;;;;40.11;42.57;100967.47;4768486;30;20513;-71
2022/03/29 09:43:57;;;;;;;17.67;8.33;;;;;;;40.05;42.38;100971.47;4770386;30;20452;-71
2022/03/29 09:46:23;;;;;;;15.60;8.37;;;;;;;40.12;42.46;100974.50;4769116;30;20481;-69
2022/03/29 09:48:50;;;;;;;16.50;7.60;;;;;;;40.15;42.13;100968.44;4760439;30;20523;-69
2022/03/29 09:51:19;;;;;;;19.00;11.40;;;;;;;40.12;41.97;100971.00;4759227;30;20465;-69
2022/03/29 09:53:52;;;;;;;27.70;8.30;;;;;;;40.17;42.59;100976.28;4758977;30;20438;-71
2022/03/29 09:56:24;;;;;;;23.67;8.23;;;;;;;40.27;42.19;100978.69;4759260;30;20591;-70
2022/03/29 09:59:23;;;;;;;24.23;9.50;;;;;;;40.37;41.87;100977.56;4762681;30;20505;-71
2022/03/29 10:01:55;;;;;;;22.40;8.50;;;;;;;40.37;41.43;100974.81;4769113;30;20875;-69
2022/03/29 10:04:23;;;;;;;23.27;9.40;;;;;;;40.41;41.68;100978.53;4760934;30;20428;-70
2022/03/29 10:06:54;;;;;;;16.37;7.73;;;;;;;40.47;41.84;100969.91;4759515;30;20421;-69
2022/03/29 10:09:29;;;;;;;22.50;8.23;;;;;;;40.48;41.60;100973.41;4766023;30;20532;-70
2022/03/29 10:12:04;;;;;;;22.03;9.60;;;;;;;40.42;41.38;100972.75;4768680;30;20520;-71
2022/03/29 10:14:36;;;;;;;14.67;7.63;;;;;;;40.38;41.41;100969.06;4769825;30;20924;-71
2022/03/29 10:17:04;;;;;;;13.10;8.00;;;;;;;40.40;41.19;100966.84;4768232;30;20448;-72
2022/03/29 10:19:30;;;;;;;16.30;10.40;;;;;;;40.29;41.74;100966.38;4766488;30;20438;-71
2022/03/29 10:21:58;;;;;;;16.43;9.87;;;;;;;40.31;41.05;100973.41;4766933;30;20509;-71
2022/03/29 10:24:25;;;;;;;17.60;7.80;;;;;;;40.24;41.30;100961.09;4769466;30;20459;-71
2022/03/29 10:26:55;;;;;;;15.07;6.93;;;;;;;40.16;41.92;100959.19;4765430;30;20448;-68
2022/03/29 10:29:22;;;;;;;28.43;8.70;;;;;;;40.15;41.95;100959.50;4768509;30;20517;-68
2022/03/29 10:31:54;;;;;;;15.30;7.80;;;;;;;40.16;41.30;100950.22;4725741;30;20982;-69
2022/03/29 10:34:24;;;;;;;18.37;8.23;;;;;;;40.21;41.58;100948.16;4750654;30;20490;-71
2022/03/29 10:37:11;;;;;;;17.90;9.67;;;;;;;40.19;41.84;100942.22;4751728;30;20427;-73
2022/03/29 10:39:54;;;;;;;21.07;10.87;;;;;;;40.17;42.03;100944.47;4760312;30;21093;-70
2022/03/29 10:42:24;;;;;;;14.80;6.77;;;;;;;40.33;42.01;100943.97;4753285;30;20490;-72
2022/03/29 10:45:05;;;;;;;22.07;9.17;;;;;;;40.22;41.95;100938.88;4765641;30;20451;-72
2022/03/29 10:47:32;;;;;;;18.53;7.07;;;;;;;40.36;41.79;100933.25;4768178;30;20440;-75
2022/03/29 10:50:00;;;;;;;17.90;8.00;;;;;;;40.34;41.84;100929.28;4767980;30;20503;-73
2022/03/29 10:52:26;;;;;;;21.77;8.93;;;;;;;40.43;41.66;100930.84;4764992;30;20528;-72
2022/03/29 10:55:12;;;;;;;20.93;9.10;;;;;;;40.40;41.34;100936.16;4759142;30;20909;-71
2022/03/29 10:57:38;;;;;;;21.63;10.10;;;;;;;40.39;41.46;100929.91;4750015;30;20825;-70
2022/03/29 11:00:06;;;;;;;14.43;8.30;;;;;;;40.50;41.49;100923.03;4756738;30;20963;-73
2022/03/29 11:02:33;;;;;;;21.03;9.53;;;;;;;40.48;41.30;100913.59;4757124;30;20465;-71
2022/03/29 11:05:10;;;;;;;18.50;9.30;;;;;;;40.46;41.53;100924.00;4760497;30;20452;-72
2022/03/29 11:07:53;;;;;;;16.97;8.43;;;;;;;40.40;41.39;100920.63;4766860;30;20436;-72
2022/03/29 11:10:21;;;;;;;16.67;7.83;;;;;;;40.47;41.44;100912.81;4761132;30;20494;-72
2022/03/29 11:12:52;;;;;;;13.50;6.57;;;;;;;40.33;41.06;100905.91;4758670;30;20985;-73
2022/03/29 11:15:38;;;;;;;30.43;8.70;;;;;;;40.48;40.92;100903.53;4766626;30;20465;-73
2022/03/29 11:18:30;;;;;;;28.67;8.93;;;;;;;40.49;41.52;100896.16;4774842;29;20446;-73
2022/03/29 11:21:02;;;;;;;16.70;7.70;;;;;;;40.54;40.73;100893.28;4767035;30;20679;-70
2022/03/29 11:23:31;;;;;;;25.43;8.97;;;;;;;40.71;40.94;100893.25;4767499;30;20432;-72